Time;durP1;ratioP1;P1;durP2;ratioP2;P2;SDS_P1;SDS_P2;PMS_P1;PMS_P2;Temp;Humidity;BMP_temperature;BMP_pressure;BME280_temperature;BME280_humidity;BME280_pressure;Samples;Min_cycle;Max_cycle;Signal;HPM_P1;HPM_P2
2022/01/03 00:00:43;;;;;;;35.17;4.75;;;11.10;99.90;;;;;;5072108;28;20032;-77
2022/01/03 00:03:11;;;;;;;40.85;5.65;;;11.00;99.90;;;;;;5071083;28;20396;-77
2022/01/03 00:05:37;;;;;;;43.13;7.40;;;11.10;99.90;;;;;;5072492;28;20472;-77
2022/01/03 00:08:05;;;;;;;36.90;5.60;;;11.00;99.90;;;;;;5071247;28;20027;-79
2022/01/03 00:10:33;;;;;;;33.83;5.07;;;11.00;99.90;;;;;;5072106;28;20369;-76
2022/01/03 00:12:59;;;;;;;33.15;5.45;;;11.00;99.90;;;;;;5072437;28;20060;-77
2022/01/03 00:15:26;;;;;;;29.17;4.53;;;11.10;99.90;;;;;;5072317;28;20412;-78
2022/01/03 00:17:53;;;;;;;33.28;4.90;;;11.10;99.90;;;;;;5072082;28;20029;-75
2022/01/03 00:20:21;;;;;;;33.10;4.90;;;11.10;99.90;;;;;;5071976;28;20546;-78
2022/01/03 00:23:00;;;;;;;38.10;6.25;;;11.10;99.90;;;;;;5072345;28;20083;-78
2022/01/03 00:25:27;;;;;;;34.50;5.90;;;11.20;99.90;;;;;;5071976;28;20063;-77
2022/01/03 00:28:10;;;;;;;26.50;5.38;;;11.10;99.90;;;;;;5072176;28;20108;-78
2022/01/03 00:30:39;;;;;;;35.75;5.65;;;11.10;99.90;;;;;;5074289;28;20127;-77
2022/01/03 00:33:06;;;;;;;27.42;4.80;;;11.10;99.90;;;;;;5074586;28;20017;-77
2022/01/03 00:35:38;;;;;;;45.53;6.05;;;11.10;99.90;;;;;;5074354;28;20029;-77
2022/01/03 00:38:09;;;;;;;44.60;5.32;;;11.10;99.90;;;;;;5074455;28;20064;-77
2022/01/03 00:40:36;;;;;;;23.92;4.88;;;11.20;99.90;;;;;;5074214;28;20036;-77
2022/01/03 00:43:04;;;;;;;25.98;4.25;;;11.10;99.90;;;;;;5075814;28;20048;-77
2022/01/03 00:45:30;;;;;;;25.27;4.10;;;11.10;99.90;;;;;;5075246;28;20063;-76
2022/01/03 00:47:56;;;;;;;35.80;5.60;;;11.10;99.90;;;;;;5075477;28;20404;-77
2022/01/03 00:50:23;;;;;;;28.30;4.90;;;11.10;99.90;;;;;;5075917;28;20067;-77
2022/01/03 00:52:50;;;;;;;40.42;5.72;;;11.10;99.90;;;;;;5073983;28;20075;-77
2022/01/03 00:55:17;;;;;;;33.78;4.80;;;11.00;99.90;;;;;;5074333;28;20027;-76
2022/01/03 00:58:07;;;;;;;35.55;4.75;;;11.00;99.90;;;;;;5073909;28;20454;-77
2022/01/03 01:00:37;;;;;;;30.20;4.72;;;11.00;99.90;;;;;;5075066;28;20055;-77
2022/01/03 01:03:10;;;;;;;28.10;4.22;;;11.00;99.90;;;;;;5057277;28;20025;-77
2022/01/03 01:05:40;;;;;;;41.78;6.07;;;11.00;99.90;;;;;;5073934;28;20074;-77
2022/01/03 01:08:06;;;;;;;25.92;4.78;;;10.90;99.90;;;;;;5075140;28;20111;-77
2022/01/03 01:10:35;;;;;;;32.70;6.82;;;10.90;99.90;;;;;;5075023;28;20052;-78
2022/01/03 01:13:03;;;;;;;27.88;3.78;;;10.90;99.90;;;;;;5075024;28;20016;-77
2022/01/03 01:15:29;;;;;;;42.88;5.65;;;10.90;99.90;;;;;;5074771;28;20027;-76
2022/01/03 01:17:56;;;;;;;32.17;4.70;;;10.80;99.90;;;;;;5074823;28;20021;-76
2022/01/03 01:20:25;;;;;;;36.95;4.53;;;10.80;99.90;;;;;;5073561;28;20021;-77
2022/01/03 01:22:53;;;;;;;29.80;4.22;;;10.80;99.90;;;;;;5073449;28;20118;-77
2022/01/03 01:27:49;;;;;;;30.85;4.93;;;10.70;99.90;;;;;;5073438;28;20059;-78
2022/01/03 01:30:19;;;;;;;40.28;6.03;;;10.70;99.90;;;;;;5073292;28;20024;-77
2022/01/03 01:32:51;;;;;;;29.50;4.60;;;10.70;99.90;;;;;;5073427;28;20032;-76
2022/01/03 01:35:23;;;;;;;36.10;5.18;;;10.70;99.90;;;;;;5056744;28;20036;-77
2022/01/03 01:37:54;;;;;;;33.08;4.38;;;10.70;99.90;;;;;;5073230;28;20020;-76
2022/01/03 01:40:24;;;;;;;27.80;5.15;;;10.60;99.90;;;;;;5073001;28;20025;-77
2022/01/03 01:42:51;;;;;;;31.30;4.38;;;10.60;99.90;;;;;;5072994;28;20044;-74
2022/01/03 01:45:21;;;;;;;31.25;5.32;;;10.50;99.90;;;;;;5074602;28;20419;-76
2022/01/03 01:47:48;;;;;;;27.73;4.30;;;10.50;99.90;;;;;;5072941;28;20055;-77
2022/01/03 01:50:15;;;;;;;37.22;4.97;;;10.50;99.90;;;;;;5073092;28;20052;-76
2022/01/03 01:52:44;;;;;;;32.00;4.72;;;10.50;99.90;;;;;;5073063;28;20120;-77
2022/01/03 01:55:13;;;;;;;36.67;6.90;;;10.50;99.90;;;;;;5073306;28;20025;-78
2022/01/03 01:58:03;;;;;;;41.30;7.22;;;10.40;99.90;;;;;;5072549;28;20025;-77
2022/01/03 02:00:43;;;;;;;29.40;5.47;;;10.40;99.90;;;;;;5072911;28;20032;-76
2022/01/03 02:03:35;;;;;;;28.02;4.88;;;10.40;99.90;;;;;;5073004;28;20037;-77
2022/01/03 02:06:25;;;;;;;36.28;5.88;;;10.40;99.90;;;;;;5072828;28;20115;-77
2022/01/03 02:09:09;;;;;;;33.03;5.57;;;10.50;99.90;;;;;;5072521;28;20016;-78
2022/01/03 02:11:46;;;;;;;25.10;4.82;;;10.40;99.90;;;;;;5072448;28;20035;-77
2022/01/03 02:14:12;;;;;;;29.80;4.95;;;10.40;99.90;;;;;;5072466;28;20024;-77
2022/01/03 02:16:38;;;;;;;37.20;5.43;;;10.30;99.90;;;;;;5072734;28;20127;-78
2022/01/03 02:19:05;;;;;;;35.70;5.93;;;10.40;99.90;;;;;;5072229;28;20029;-77
2022/01/03 02:21:32;;;;;;;27.48;4.10;;;10.40;99.90;;;;;;5073467;28;20041;-77
2022/01/03 02:23:58;;;;;;;37.75;5.22;;;10.30;99.90;;;;;;5072472;28;20020;-77
2022/01/03 02:26:24;;;;;;;37.75;4.82;;;10.30;99.90;;;;;;5072071;28;20031;-77
2022/01/03 02:28:50;;;;;;;34.05;4.95;;;10.30;99.90;;;;;;5073360;28;20025;-76
2022/01/03 02:31:17;;;;;;;37.38;5.10;;;10.30;99.90;;;;;;5072469;28;20507;-77
2022/01/03 02:33:45;;;;;;;38.33;5.28;;;10.30;99.90;;;;;;5055571;28;20511;-77
2022/01/03 02:36:12;;;;;;;31.20;4.13;;;10.30;99.90;;;;;;5072159;28;20423;-78
2022/01/03 02:38:38;;;;;;;32.28;5.00;;;10.30;99.90;;;;;;5071982;28;20017;-76
2022/01/03 02:41:04;;;;;;;36.97;6.03;;;10.30;99.90;;;;;;5053174;28;20040;-78
2022/01/03 02:43:31;;;;;;;39.78;5.25;;;10.30;99.90;;;;;;5052294;28;20029;-77
2022/01/03 02:45:58;;;;;;;28.73;5.32;;;10.30;99.90;;;;;;5051892;28;20064;-77
2022/01/03 02:48:26;;;;;;;45.92;5.80;;;10.20;99.90;;;;;;5053205;28;20057;-75
2022/01/03 02:50:53;;;;;;;29.63;4.60;;;10.40;99.90;;;;;;5051599;28;20028;-77
2022/01/03 02:53:19;;;;;;;45.00;6.30;;;10.30;99.90;;;;;;5051725;28;20056;-77
2022/01/03 02:55:46;;;;;;;48.50;5.40;;;10.30;99.90;;;;;;5053169;28;20056;-77
2022/01/03 02:58:12;;;;;;;36.00;5.32;;;10.40;99.90;;;;;;5053127;28;20108;-77
2022/01/03 03:00:48;;;;;;;45.67;5.60;;;10.50;99.90;;;;;;5051508;28;20055;-77
2022/01/03 03:03:21;;;;;;;46.33;7.15;;;10.40;99.90;;;;;;5035989;28;20033;-77
2022/01/03 03:05:50;;;;;;;34.92;5.57;;;10.40;99.90;;;;;;5051810;28;20078;-77
2022/01/03 03:08:17;;;;;;;32.08;4.93;;;10.40;99.90;;;;;;5035103;28;20021;-76
2022/01/03 03:10:44;;;;;;;32.50;6.10;;;10.40;99.90;;;;;;5071313;28;20078;-77
2022/01/03 03:13:10;;;;;;;33.40;5.65;;;10.40;99.90;;;;;;5071720;28;20028;-77
2022/01/03 03:15:36;;;;;;;36.83;5.03;;;10.30;99.90;;;;;;5054877;28;20380;-77
2022/01/03 03:18:02;;;;;;;40.38;7.85;;;10.40;99.90;;;;;;5071652;28;20032;-76
2022/01/03 03:20:32;;;;;;;42.35;6.03;;;10.30;99.90;;;;;;5072482;28;20024;-76
2022/01/03 03:23:00;;;;;;;;;;;10.40;99.90;;;;;;5072469;28;20083;-76
2022/01/03 03:25:32;;;;;;;32.35;4.68;;;10.40;99.90;;;;;;5071091;28;19908;-76
2022/01/03 03:28:08;;;;;;;51.13;6.75;;;10.40;99.90;;;;;;5071683;28;20029;-77
2022/01/03 03:30:43;;;;;;;31.40;5.50;;;10.40;99.90;;;;;;5071294;28;20459;-78
2022/01/03 03:33:14;;;;;;;37.83;6.70;;;10.50;99.90;;;;;;5071390;28;20499;-77
2022/01/03 03:35:44;;;;;;;52.58;7.15;;;10.60;99.90;;;;;;5071514;28;20469;-78
2022/01/03 03:38:11;;;;;;;33.90;7.22;;;10.60;99.90;;;;;;5071411;28;20035;-78
2022/01/03 03:40:38;;;;;;;40.67;6.25;;;10.50;99.90;;;;;;5070852;28;20512;-78
2022/01/03 03:43:04;;;;;;;33.28;5.15;;;10.50;99.90;;;;;;5071284;28;20119;-77
2022/01/03 03:45:32;;;;;;;46.38;5.68;;;10.50;99.90;;;;;;5071380;28;20460;-77
2022/01/03 03:47:58;;;;;;;43.60;5.78;;;10.50;99.90;;;;;;5071559;28;20025;-77
2022/01/03 03:50:25;;;;;;;37.25;5.95;;;10.40;99.90;;;;;;5072226;28;20350;-76
2022/01/03 03:52:51;;;;;;;34.97;5.65;;;10.40;99.90;;;;;;5071499;28;20473;-77
2022/01/03 03:55:17;;;;;;;34.88;4.88;;;10.40;99.90;;;;;;5054307;28;20495;-76
2022/01/03 03:57:43;;;;;;;41.53;7.10;;;10.30;99.90;;;;;;5072537;28;20033;-78
2022/01/03 04:00:14;;;;;;;38.35;6.30;;;10.40;99.90;;;;;;5071027;28;20012;-77
2022/01/03 04:02:42;;;;;;;43.17;7.50;;;10.30;99.90;;;;;;5072152;28;20056;-76
2022/01/03 04:05:11;;;;;;;41.20;6.05;;;10.30;99.90;;;;;;5075072;28;20060;-76
2022/01/03 04:07:38;;;;;;;34.25;5.13;;;10.30;99.90;;;;;;5074738;28;20078;-77
2022/01/03 04:10:05;;;;;;;38.85;5.30;;;10.20;99.90;;;;;;5074667;28;20028;-77
2022/01/03 04:12:32;;;;;;;38.53;5.28;;;10.30;99.90;;;;;;5076219;28;20392;-76
2022/01/03 04:15:00;;;;;;;29.85;4.97;;;10.20;99.90;;;;;;5058710;28;20034;-77
2022/01/03 04:17:26;;;;;;;21.85;2.80;;;10.20;99.90;;;;;;5076202;28;20028;-75
2022/01/03 04:19:52;;;;;;;29.52;5.38;;;10.10;99.90;;;;;;5075949;28;20028;-77
2022/01/03 04:22:18;;;;;;;34.35;6.03;;;10.10;99.90;;;;;;5074282;28;20060;-77
2022/01/03 04:24:44;;;;;;;45.67;6.45;;;10.20;99.90;;;;;;5074771;28;20025;-77
2022/01/03 04:27:10;;;;;;;39.08;6.05;;;10.10;99.90;;;;;;5075693;28;20115;-77
2022/01/03 04:29:36;;;;;;;44.15;6.07;;;10.10;99.90;;;;;;5074615;28;20074;-77
2022/01/03 04:32:03;;;;;;;36.60;5.75;;;10.10;99.90;;;;;;5057924;28;20032;-77
2022/01/03 04:34:29;;;;;;;31.30;6.40;;;10.10;99.90;;;;;;5074518;28;20472;-77
2022/01/03 04:36:55;;;;;;;31.70;5.75;;;10.20;99.90;;;;;;5074205;28;20029;-77
2022/01/03 04:39:21;;;;;;;45.22;6.72;;;10.20;99.90;;;;;;5074469;28;20469;-77
2022/01/03 04:41:47;;;;;;;36.17;5.55;;;10.20;99.90;;;;;;5074497;28;20447;-78
2022/01/03 04:44:13;;;;;;;30.00;6.07;;;10.20;99.90;;;;;;5074439;28;20020;-78
2022/01/03 04:46:39;;;;;;;32.08;4.90;;;10.10;99.90;;;;;;5075667;28;20115;-78
2022/01/03 04:49:07;;;;;;;31.73;4.82;;;10.20;99.90;;;;;;5074351;28;20024;-78
2022/01/03 04:51:33;;;;;;;34.75;4.65;;;10.20;99.90;;;;;;5073770;28;20397;-78
2022/01/03 04:53:59;;;;;;;46.55;6.82;;;10.30;99.90;;;;;;5075647;28;20449;-76
2022/01/03 04:56:28;;;;;;;40.78;5.93;;;10.40;99.90;;;;;;5074001;28;20024;-75
2022/01/03 04:58:57;;;;;;;44.05;6.25;;;10.40;99.90;;;;;;5074161;28;20476;-77
2022/01/03 05:01:23;;;;;;;33.13;5.20;;;10.40;99.90;;;;;;5057170;28;20090;-78
2022/01/03 05:03:49;;;;;;;31.63;5.00;;;10.40;99.90;;;;;;5074023;28;20032;-77
2022/01/03 05:06:17;;;;;;;36.22;6.10;;;10.50;99.90;;;;;;5073500;28;20028;-77
2022/01/03 05:08:44;;;;;;;41.78;5.53;;;10.40;99.90;;;;;;5073689;28;20051;-77
2022/01/03 05:11:12;;;;;;;27.20;4.20;;;10.50;99.90;;;;;;5073815;28;20024;-75
2022/01/03 05:13:37;;;;;;;29.35;5.28;;;10.50;99.90;;;;;;5075260;28;20094;-77
2022/01/03 05:16:04;;;;;;;34.58;4.78;;;10.60;99.90;;;;;;5073117;28;20036;-76
2022/01/03 05:18:31;;;;;;;30.20;5.45;;;10.60;99.90;;;;;;5073459;28;20531;-77
2022/01/03 05:20:57;;;;;;;39.55;5.72;;;10.60;99.90;;;;;;5073384;28;20123;-77
2022/01/03 05:23:24;;;;;;;35.28;5.45;;;10.60;99.90;;;;;;5073592;28;20025;-77
2022/01/03 05:25:50;;;;;;;33.88;4.35;;;10.60;99.90;;;;;;5056876;28;20020;-77
2022/01/03 05:28:16;;;;;;;41.85;5.63;;;10.60;99.90;;;;;;5073432;28;20435;-76
2022/01/03 05:30:43;;;;;;;28.98;4.43;;;10.70;99.90;;;;;;5073597;28;20461;-78
2022/01/03 05:33:10;;;;;;;31.27;4.57;;;10.80;99.90;;;;;;5073375;28;20115;-77
2022/01/03 05:35:36;;;;;;;36.80;5.78;;;10.80;99.90;;;;;;5073071;28;20112;-77
2022/01/03 05:38:02;;;;;;;29.98;5.10;;;10.80;99.90;;;;;;5073687;28;20032;-76
2022/01/03 05:40:28;;;;;;;34.65;4.40;;;10.70;99.90;;;;;;5056671;28;20071;-76
2022/01/03 05:42:55;;;;;;;27.38;5.05;;;10.80;99.90;;;;;;5073164;28;20028;-77
2022/01/03 05:45:22;;;;;;;42.65;4.75;;;10.80;99.90;;;;;;5056972;28;20358;-77
2022/01/03 05:47:48;;;;;;;29.83;4.78;;;10.80;99.90;;;;;;5073024;28;20469;-78
2022/01/03 05:50:17;;;;;;;19.05;4.15;;;10.70;99.90;;;;;;5072765;28;20025;-77
2022/01/03 05:52:44;;;;;;;24.02;4.05;;;10.80;99.90;;;;;;5073099;28;20025;-77
2022/01/03 05:55:11;;;;;;;23.23;4.25;;;10.90;99.90;;;;;;5073254;28;20021;-77
2022/01/03 05:57:39;;;;;;;26.88;4.35;;;10.80;99.90;;;;;;5072721;28;20501;-78
2022/01/03 06:00:09;;;;;;;24.50;3.97;;;10.80;99.90;;;;;;5073025;28;20104;-78
2022/01/03 06:02:42;;;;;;;28.08;4.28;;;10.80;99.90;;;;;;5074453;28;20040;-76
2022/01/03 06:05:32;;;;;;;24.27;3.85;;;10.80;99.90;;;;;;5072812;28;20097;-77
2022/01/03 06:07:58;;;;;;;24.98;4.78;;;10.80;99.90;;;;;;5074012;28;20037;-78
2022/01/03 06:10:25;;;;;;;31.70;3.72;;;10.70;99.90;;;;;;5072646;28;20032;-77
2022/01/03 06:12:52;;;;;;;19.65;3.70;;;10.60;99.90;;;;;;5056035;28;20086;-77
2022/01/03 06:15:24;;;;;;;31.85;4.13;;;10.60;99.90;;;;;;5072671;28;20082;-78
2022/01/03 06:17:50;;;;;;;22.13;3.45;;;10.60;99.90;;;;;;5073861;28;20029;-78
2022/01/03 06:20:16;;;;;;;21.58;3.45;;;10.60;99.90;;;;;;5072161;28;20039;-77
2022/01/03 06:22:43;;;;;;;24.73;4.65;;;10.50;99.90;;;;;;5072373;28;20043;-77
2022/01/03 06:25:10;;;;;;;20.73;3.70;;;10.60;99.90;;;;;;5072512;28;20044;-78
2022/01/03 06:27:38;;;;;;;18.15;4.45;;;10.50;99.90;;;;;;5071184;28;20059;-78
2022/01/03 06:30:06;;;;;;;23.98;3.78;;;10.60;99.90;;;;;;5072128;28;20073;-77
2022/01/03 06:32:34;;;;;;;27.27;4.68;;;10.50;99.90;;;;;;5071852;28;20082;-76
2022/01/03 06:35:00;;;;;;;30.52;4.35;;;10.50;99.90;;;;;;5072110;28;20395;-78
2022/01/03 06:37:26;;;;;;;34.58;4.13;;;10.40;99.90;;;;;;5071801;28;20013;-77
2022/01/03 06:40:07;;;;;;;22.92;3.30;;;10.40;99.90;;;;;;5071923;28;20032;-77
2022/01/03 06:42:33;;;;;;;21.08;3.65;;;10.40;99.90;;;;;;5071893;28;20075;-78
2022/01/03 06:45:00;;;;;;;21.95;3.55;;;10.50;99.90;;;;;;5048198;28;20021;-76
2022/01/03 06:47:26;;;;;;;23.00;3.63;;;10.40;99.90;;;;;;5051643;28;20540;-75
2022/01/03 06:49:52;;;;;;;21.38;3.92;;;10.40;99.90;;;;;;5052995;28;20100;-76
2022/01/03 06:52:18;;;;;;;28.95;4.28;;;10.50;99.90;;;;;;5051921;28;20367;-77
2022/01/03 06:54:45;;;;;;;30.15;3.78;;;10.40;99.90;;;;;;5051627;28;20385;-78
2022/01/03 06:57:11;;;;;;;28.27;4.20;;;10.50;99.90;;;;;;5051785;28;20238;-77
2022/01/03 06:59:38;;;;;;;32.28;4.53;;;10.40;99.90;;;;;;5051446;28;20060;-78
2022/01/03 07:02:05;;;;;;;33.80;4.65;;;10.40;99.90;;;;;;5051449;28;20033;-78
2022/01/03 07:04:31;;;;;;;26.63;3.92;;;10.40;99.90;;;;;;5051592;28;20048;-78
2022/01/03 07:06:57;;;;;;;27.55;3.72;;;10.40;99.90;;;;;;5051886;28;20073;-79
2022/01/03 07:09:23;;;;;;;29.25;3.20;;;10.50;99.90;;;;;;5061334;28;20028;-77
2022/01/03 07:11:48;;;;;;;23.70;3.80;;;10.50;99.90;;;;;;5072900;28;20037;-79
2022/01/03 07:19:42;;;;;;;15.07;3.10;;;10.60;99.90;;;;;;5072643;28;20123;-79
2022/01/03 07:22:09;;;;;;;20.60;3.53;;;10.50;99.90;;;;;;5072710;28;20302;-79
2022/01/03 07:24:37;;;;;;;39.30;5.10;;;10.50;99.90;;;;;;5072665;28;20370;-79
2022/01/03 07:27:04;;;;;;;35.67;4.63;;;10.60;99.90;;;;;;5072589;28;20047;-79
2022/01/03 07:29:30;;;;;;;31.60;4.82;;;10.60;99.90;;;;;;5072547;28;20039;-79
2022/01/03 07:31:57;;;;;;;24.45;4.90;;;10.60;99.90;;;;;;5072861;28;20032;-79
2022/01/03 07:34:23;;;;;;;42.78;6.10;;;10.60;99.90;;;;;;5072724;28;20103;-77
2022/01/03 07:36:49;;;;;;;34.15;4.80;;;10.60;99.90;;;;;;5071283;28;20086;-79
2022/01/03 07:39:15;;;;;;;41.78;5.50;;;10.50;99.90;;;;;;5076391;28;20024;-79
2022/01/03 07:41:40;;;;;;;15.65;3.05;;;10.60;99.90;;;;;;5076792;28;20037;-79
2022/01/03 07:44:06;;;;;;;36.63;5.85;;;10.50;99.90;;;;;;5076942;28;20028;-79
2022/01/03 07:46:32;;;;;;;35.15;6.22;;;10.60;99.90;;;;;;5076208;28;20499;-79
2022/01/03 07:48:58;;;;;;;30.17;4.38;;;10.60;99.90;;;;;;5076560;28;20025;-78
2022/01/03 07:51:23;;;;;;;35.22;4.93;;;10.60;99.90;;;;;;5076644;28;20044;-78
2022/01/03 07:53:49;;;;;;;36.13;4.40;;;10.60;99.90;;;;;;5076654;28;20030;-78
2022/01/03 07:56:18;;;;;;;24.77;4.55;;;10.60;99.90;;;;;;5076372;28;20388;-77
2022/01/03 07:58:44;;;;;;;19.38;3.33;;;10.50;99.90;;;;;;5076252;28;20025;-77
2022/01/03 08:01:10;;;;;;;20.27;3.65;;;10.50;99.90;;;;;;5075983;28;20032;-77
2022/01/03 08:03:36;;;;;;;26.77;5.00;;;10.50;99.90;;;;;;5076383;28;20029;-79
2022/01/03 08:06:03;;;;;;;24.85;4.13;;;10.50;99.90;;;;;;5076295;28;20021;-78
2022/01/03 08:08:28;;;;;;;31.80;5.25;;;10.50;99.90;;;;;;5076024;28;20469;-75
2022/01/03 08:10:54;;;;;;;40.05;5.80;;;10.60;99.90;;;;;;5074957;28;20081;-78
2022/01/03 08:13:20;;;;;;;34.50;4.93;;;10.70;99.90;;;;;;5076253;28;20024;-79
2022/01/03 08:15:46;;;;;;;35.58;4.68;;;10.60;99.90;;;;;;5075676;28;20074;-78
2022/01/03 08:18:12;;;;;;;39.60;4.63;;;10.80;99.90;;;;;;5076026;28;20025;-79
2022/01/03 08:20:38;;;;;;;25.60;4.55;;;10.70;99.90;;;;;;5074390;28;20040;-78
2022/01/03 08:23:03;;;;;;;41.03;5.35;;;10.60;99.90;;;;;;5076075;28;20445;-77
2022/01/03 08:25:32;;;;;;;28.70;4.68;;;10.60;99.90;;;;;;5075664;28;20028;-78
2022/01/03 08:27:58;;;;;;;30.27;4.55;;;10.60;99.90;;;;;;5075727;28;20090;-78
2022/01/03 08:30:23;;;;;;;24.95;3.83;;;10.70;99.90;;;;;;5075635;28;20028;-79
2022/01/03 08:32:49;;;;;;;33.88;6.15;;;10.60;99.90;;;;;;5075759;28;20020;-79
2022/01/03 08:35:15;;;;;;;37.17;5.05;;;10.70;99.90;;;;;;5075766;28;20060;-79
2022/01/03 08:37:40;;;;;;;34.08;5.25;;;10.70;99.90;;;;;;5075654;28;20025;-79
2022/01/03 08:40:07;;;;;;;30.52;5.18;;;10.70;99.90;;;;;;5075730;28;20461;-79
2022/01/03 08:42:34;;;;;;;28.42;4.18;;;10.80;99.90;;;;;;5076775;28;20477;-77
2022/01/03 08:45:04;;;;;;;34.63;4.85;;;10.80;99.90;;;;;;5074147;28;20472;-78
2022/01/03 08:47:30;;;;;;;29.65;4.43;;;10.90;99.90;;;;;;5075536;28;20109;-78
2022/01/03 08:49:56;;;;;;;35.60;4.95;;;10.90;99.90;;;;;;5074555;28;20474;-78
2022/01/03 08:52:22;;;;;;;38.28;6.47;;;10.80;99.90;;;;;;5075535;28;20047;-78
2022/01/03 08:54:48;;;;;;;32.17;4.65;;;10.90;99.90;;;;;;5075419;28;20038;-77
2022/01/03 08:57:14;;;;;;;39.28;6.07;;;10.90;99.90;;;;;;5074044;28;20145;-79
2022/01/03 08:59:39;;;;;;;29.35;4.15;;;10.90;99.90;;;;;;5073732;28;20033;-79
2022/01/03 09:02:05;;;;;;;26.75;4.13;;;10.90;99.90;;;;;;5075231;28;20040;-80
2022/01/03 09:04:31;;;;;;;37.30;5.18;;;10.80;99.90;;;;;;5075137;28;20016;-79
2022/01/03 09:06:58;;;;;;;29.25;4.32;;;10.90;99.90;;;;;;5075196;28;20103;-79
2022/01/03 09:09:27;;;;;;;29.33;4.22;;;10.80;99.90;;;;;;5075224;28;20017;-80
2022/01/03 09:11:53;;;;;;;29.27;4.38;;;10.80;99.90;;;;;;5075013;28;20043;-79
2022/01/03 09:14:19;;;;;;;35.20;4.97;;;10.90;99.90;;;;;;5074973;28;20021;-78
2022/01/03 09:16:45;;;;;;;31.20;4.88;;;10.90;99.90;;;;;;5073666;28;20127;-79
2022/01/03 09:19:11;;;;;;;30.50;4.63;;;10.80;99.90;;;;;;5074967;28;20052;-78
2022/01/03 09:21:36;;;;;;;27.08;4.20;;;10.90;99.90;;;;;;5074931;28;20503;-76
2022/01/03 09:24:25;;;;;;;17.02;3.97;;;10.90;99.90;;;;;;5075171;28;20051;-78
2022/01/03 09:29:48;;;;;;;38.47;4.88;;;10.90;99.90;;;;;;5071608;28;20069;-79
2022/01/03 09:32:14;;;;;;;22.33;3.20;;;11.00;99.90;;;;;;5063336;28;20053;-79
2022/01/03 09:34:40;;;;;;;27.17;3.95;;;10.90;99.90;;;;;;5055094;28;20025;-78
2022/01/03 09:37:06;;;;;;;34.53;4.70;;;10.90;99.90;;;;;;5054489;28;20041;-79
2022/01/03 09:39:32;;;;;;;32.70;4.47;;;10.90;99.90;;;;;;5054618;28;20028;-78
2022/01/03 09:42:03;;;;;;;29.13;5.07;;;10.90;99.90;;;;;;5054137;28;20049;-77
2022/01/03 09:44:31;;;;;;;36.58;5.10;;;11.00;99.90;;;;;;5054677;28;20036;-78
2022/01/03 09:47:04;;;;;;;29.58;4.22;;;11.00;99.90;;;;;;5053240;28;20063;-79
2022/01/03 09:49:38;;;;;;;26.50;4.53;;;10.90;99.90;;;;;;5054426;28;20025;-78
2022/01/03 09:52:06;;;;;;;26.25;4.53;;;10.80;99.90;;;;;;5054540;28;20037;-79
2022/01/03 09:54:32;;;;;;;29.85;5.78;;;10.90;99.90;;;;;;5053034;28;20074;-79
2022/01/03 09:57:03;;;;;;;32.75;5.20;;;10.90;99.90;;;;;;5054003;28;20033;-78
2022/01/03 09:59:30;;;;;;;27.70;5.03;;;10.90;99.90;;;;;;5054198;28;20035;-78
2022/01/03 10:01:58;;;;;;;33.47;4.47;;;11.00;99.90;;;;;;5053703;28;20405;-79
2022/01/03 10:04:24;;;;;;;32.50;6.00;;;10.90;99.90;;;;;;5054676;28;20470;-78
2022/01/03 10:06:50;;;;;;;33.55;5.07;;;10.80;99.90;;;;;;5054786;28;20055;-78
2022/01/03 10:09:19;;;;;;;38.63;5.32;;;10.80;99.90;;;;;;5061563;28;20024;-78
2022/01/03 10:11:45;;;;;;;25.80;5.45;;;10.80;99.90;;;;;;5073743;28;20449;-78
2022/01/03 10:14:12;;;;;;;35.30;5.53;;;10.90;99.90;;;;;;5073654;28;20024;-79
2022/01/03 10:16:39;;;;;;;29.98;4.22;;;10.90;99.90;;;;;;5073914;28;20044;-78
2022/01/03 10:19:05;;;;;;;27.23;3.25;;;10.90;99.90;;;;;;5073633;28;20025;-78
2022/01/03 10:21:43;;;;;;;30.38;4.45;;;10.90;99.90;;;;;;5073695;28;20047;-78
2022/01/03 10:24:12;;;;;;;27.70;4.50;;;10.90;99.90;;;;;;5073699;28;20043;-79
2022/01/03 10:26:38;;;;;;;15.82;3.72;;;10.90;99.90;;;;;;5073407;28;20041;-78
2022/01/03 10:29:34;;;;;;;25.30;4.38;;;10.90;99.90;;;;;;5072281;28;20036;-78
2022/01/03 10:32:01;;;;;;;25.45;3.80;;;10.90;99.90;;;;;;5073055;28;20059;-78
2022/01/03 10:34:27;;;;;;;27.48;4.60;;;10.90;99.90;;;;;;5073521;28;20431;-78
2022/01/03 10:36:55;;;;;;;24.77;3.85;;;10.90;99.90;;;;;;5073373;28;20024;-78
2022/01/03 10:39:24;;;;;;;25.67;4.13;;;10.90;99.90;;;;;;5072885;28;20016;-78
2022/01/03 10:42:10;;;;;;;25.17;5.00;;;10.80;99.90;;;;;;5073187;28;20499;-78
2022/01/03 10:44:38;;;;;;;20.95;3.00;;;10.80;99.90;;;;;;5072036;28;20028;-79
2022/01/03 10:47:15;;;;;;;21.40;3.78;;;10.80;99.90;;;;;;5073363;28;20020;-78
2022/01/03 10:49:43;;;;;;;33.00;4.75;;;10.80;99.90;;;;;;5071537;28;20028;-78
2022/01/03 10:52:15;;;;;;;34.17;4.80;;;10.80;99.90;;;;;;5073302;28;20025;-79
2022/01/03 10:54:41;;;;;;;27.58;4.45;;;10.80;99.90;;;;;;5071706;28;20055;-78
2022/01/03 10:57:07;;;;;;;33.08;4.53;;;10.80;99.90;;;;;;5072039;28;20281;-78
2022/01/03 10:59:35;;;;;;;24.50;4.80;;;10.80;99.90;;;;;;5073036;28;20418;-77
2022/01/03 11:02:07;;;;;;;29.40;5.03;;;10.80;99.90;;;;;;5072806;28;20068;-78
2022/01/03 11:04:51;;;;;;;33.03;4.97;;;10.80;99.90;;;;;;5073025;28;20028;-78
2022/01/03 11:13:03;;;;;;;24.15;5.45;;;10.90;99.90;;;;;;5072506;28;20357;-80
2022/01/03 11:15:29;;;;;;;25.13;4.55;;;10.80;99.90;;;;;;5072903;28;20067;-79
2022/01/03 11:18:15;;;;;;;26.77;4.45;;;10.70;99.90;;;;;;5072937;28;20421;-78
2022/01/03 11:20:43;;;;;;;31.85;4.47;;;10.60;99.90;;;;;;5072588;28;20510;-79
2022/01/03 11:23:09;;;;;;;30.98;5.65;;;10.50;99.90;;;;;;5072634;28;20488;-78
2022/01/03 11:25:35;;;;;;;31.50;6.13;;;10.60;99.90;;;;;;5072439;28;20066;-80
2022/01/03 11:28:03;;;;;;;29.33;5.72;;;10.60;99.90;;;;;;5072493;28;20380;-80
2022/01/03 11:30:30;;;;;;;28.80;4.53;;;10.50;99.90;;;;;;5072651;28;20033;-78
2022/01/03 11:32:56;;;;;;;32.03;4.45;;;10.60;99.90;;;;;;5072719;28;20017;-78
2022/01/03 11:35:23;;;;;;;29.02;4.53;;;10.60;99.90;;;;;;5072634;28;20035;-79
2022/01/03 11:37:50;;;;;;;22.92;4.78;;;10.60;99.90;;;;;;5072491;28;20016;-78
2022/01/03 11:40:17;;;;;;;29.23;4.90;;;10.60;99.90;;;;;;5072508;28;20431;-78
2022/01/03 11:42:44;;;;;;;25.60;5.03;;;10.60;99.90;;;;;;5072583;28;20068;-78
2022/01/03 11:45:11;;;;;;;26.65;3.90;;;10.60;99.90;;;;;;5072576;28;20056;-78
2022/01/03 11:47:37;;;;;;;29.83;4.68;;;10.70;99.90;;;;;;5072534;28;20119;-77
2022/01/03 11:50:06;;;;;;;32.30;4.70;;;10.60;99.90;;;;;;5072383;28;20033;-80
2022/01/03 11:52:40;;;;;;;27.50;5.22;;;10.60;99.90;;;;;;5072285;28;20029;-79
2022/01/03 11:55:09;;;;;;;31.73;4.45;;;10.60;99.90;;;;;;5073456;28;20024;-78
2022/01/03 12:03:40;;;;;;;16.30;4.32;;;10.60;99.90;;;;;;5070994;28;20045;-79
2022/01/03 12:06:08;;;;;;;21.48;3.38;;;10.60;99.90;;;;;;5071920;28;20020;-79
2022/01/03 12:08:36;;;;;;;18.88;3.75;;;10.70;99.90;;;;;;5072241;28;20060;-78
2022/01/03 12:11:19;;;;;;;16.35;2.70;;;10.70;99.90;;;;;;5072372;28;20035;-78
2022/01/03 12:13:58;;;;;;;18.20;3.60;;;10.60;99.90;;;;;;5072465;28;20028;-78
2022/01/03 12:17:02;;;;;;;17.90;2.55;;;10.60;99.90;;;;;;5072168;28;20024;-77
2022/01/03 12:19:42;;;;;;;15.77;2.95;;;10.60;99.90;;;;;;5051233;28;20493;-77
2022/01/03 12:22:15;;;;;;;15.15;2.22;;;10.60;99.90;;;;;;5071638;28;20052;-78
2022/01/03 12:24:51;;;;;;;23.55;4.90;;;10.60;99.90;;;;;;5074443;28;20123;-78
2022/01/03 12:27:20;;;;;;;15.35;2.50;;;10.60;99.90;;;;;;5075686;28;20131;-79
2022/01/03 12:29:57;;;;;;;11.98;2.55;;;10.50;99.90;;;;;;5075911;28;20017;-78
2022/01/03 12:32:25;;;;;;;11.25;2.35;;;10.50;99.90;;;;;;5075783;28;20029;-79
2022/01/03 12:35:17;;;;;;;12.52;2.00;;;10.50;99.90;;;;;;5075746;28;20048;-79
2022/01/03 12:37:54;;;;;;;13.23;2.83;;;10.40;99.90;;;;;;5074226;28;20033;-78
2022/01/03 12:40:29;;;;;;;9.85;1.95;;;10.40;99.90;;;;;;5075352;28;20282;-78
2022/01/03 12:43:05;;;;;;;10.60;2.53;;;10.50;99.90;;;;;;5075666;28;20040;-78
2022/01/03 12:45:34;;;;;;;6.53;1.42;;;10.50;99.90;;;;;;5076933;28;20064;-78
2022/01/03 12:48:09;;;;;;;16.20;2.00;;;10.40;99.90;;;;;;5076817;28;20412;-78
2022/01/03 12:50:46;;;;;;;12.05;1.85;;;10.40;99.90;;;;;;5075314;28;20462;-78
2022/01/03 12:53:32;;;;;;;11.75;1.90;;;10.40;99.90;;;;;;5075240;28;20032;-79
2022/01/03 12:56:00;;;;;;;7.63;1.98;;;10.50;99.90;;;;;;5075242;28;20068;-78
2022/01/03 12:58:26;;;;;;;13.00;2.10;;;10.50;99.90;;;;;;5074256;28;20032;-79
2022/01/03 13:00:58;;;;;;;14.32;2.17;;;10.50;99.90;;;;;;5076189;28;20031;-78
2022/01/03 13:03:39;;;;;;;12.68;2.08;;;10.60;99.90;;;;;;5075593;28;20040;-79
2022/01/03 13:06:21;;;;;;;8.55;2.50;;;10.50;99.90;;;;;;5075224;28;20384;-79
2022/01/03 13:08:56;;;;;;;;;;;10.60;99.90;;;;;;5075412;28;20028;-79